METAR Data
IDs: Format: Raw Decoded Include TAF

Data at: 2115 UTC 02 Aug 2021

LFOP 022100Z AUTO 26003KT 8000 -RA NSC 15/13 Q1015